首页
METAR-TAF:

METAR-TAF

机场 :

利沃夫, 乌克兰

纬度: 49-49N, 经度: 023-57E, 海拔: 319米

当前天气观测

该预报发布于28分钟前的08:00 UTC
风速6节,风向南转西南,在西转西南之间变化
温度 25°C
湿度 61%
气压 1018 hPa
能见度10公里或以上
1500米以下无云,无积雨云

METAR: UKLL 190800Z 20003MPS 170V250 CAVOK 25/17 Q1018 R13/D NOSIG

时间: 11:28 (08:28 UTC)

预报

该预报发布于3小时和23分钟前的05:05 UTC
预报有效从19日的 06点(UTC)到 20日的 06点(UTC)
风速6节,风向
能见度10公里或以上
多云层高于2000英尺

TAF: UKLL 190505Z 1906/2006 17003MPS 9999 BKN020 TX29/1913Z TN13/2003Z

超过4000个机场的气象观测和天气预报(METAR&TAF报告)。

可查询的气象台以黄色和红色小点在地图上表示。

将鼠标移到小点上方,可查看气象台名称。

然后点击查看天气观测和预报。

如需切换地图:点击带黑十字的绿色按钮放大地图;点击带横线的绿色按钮缩小地图;或者点击绿色箭头查看邻近地区的地图。


METAR-TAF: